Time;durP1;ratioP1;P1;durP2;ratioP2;P2;SDS_P1;SDS_P2;PMS_P1;PMS_P2;Temp;Humidity;BMP_temperature;BMP_pressure;BME280_temperature;BME280_humidity;BME280_pressure;Samples;Min_cycle;Max_cycle;Signal;HPM_P1;HPM_P2
2021/01/14 00:02:24;;;;;;;2.20;2.00;;;;;;;2.49;58.36;97768.06;5072783;28;20052;-62
2021/01/14 00:04:50;;;;;;;2.80;2.50;;;;;;;2.45;59.26;97742.78;5074886;28;20099;-62
2021/01/14 00:07:15;;;;;;;3.37;2.27;;;;;;;2.32;59.99;97749.53;5071575;28;20032;-62
2021/01/14 00:09:41;;;;;;;5.20;2.57;;;;;;;2.32;61.62;97741.94;5071942;28;20028;-63
2021/01/14 00:12:07;;;;;;;2.10;1.90;;;;;;;2.30;61.29;97746.16;5073075;28;20032;-62
2021/01/14 00:14:32;;;;;;;4.83;2.80;;;;;;;2.23;61.93;97747.00;5073389;28;20111;-62
2021/01/14 00:16:58;;;;;;;4.33;2.20;;;;;;;2.24;61.86;97729.31;5073210;28;20081;-62
2021/01/14 00:19:23;;;;;;;4.67;2.70;;;;;;;2.27;62.30;97731.00;5073267;28;20341;-62
2021/01/14 00:21:49;;;;;;;4.07;2.87;;;;;;;2.22;61.89;97720.03;5073260;28;20659;-62
2021/01/14 00:24:14;;;;;;;6.37;2.17;;;;;;;2.22;62.44;97737.72;5073152;28;20453;-62
2021/01/14 00:26:40;;;;;;;2.70;2.50;;;;;;;2.27;61.28;97713.28;5074019;28;20028;-62
2021/01/14 00:29:06;;;;;;;3.37;2.80;;;;;;;2.25;61.70;97704.84;5073686;28;20035;-62
2021/01/14 00:31:32;;;;;;;3.83;2.03;;;;;;;2.23;61.46;97692.22;5074015;28;20035;-62
2021/01/14 00:33:57;;;;;;;3.67;2.33;;;;;;;2.30;59.94;97696.44;5073608;28;20028;-62
2021/01/14 00:37:50;;;;;;;3.57;2.37;;;;;;;2.45;59.78;97685.44;5073996;28;20028;-61
2021/01/14 00:39:27;;;;;;;3.70;1.97;;;;;;;2.33;60.65;97679.59;5072469;28;20036;-61
2021/01/14 00:41:54;;;;;;;3.70;1.93;;;;;;;2.27;60.84;97681.28;5073722;28;20023;-62
2021/01/14 00:44:19;;;;;;;3.90;2.40;;;;;;;2.25;61.37;97677.03;5073391;28;20032;-61
2021/01/14 00:46:45;;;;;;;3.30;2.10;;;;;;;2.29;61.09;97679.56;5074836;28;20142;-61
2021/01/14 00:49:11;;;;;;;3.50;2.40;;;;;;;2.39;60.11;97669.44;5073373;28;20099;-62
2021/01/14 00:51:38;;;;;;;4.83;3.17;;;;;;;2.37;60.41;97666.09;5074087;28;20024;-61
2021/01/14 00:54:07;;;;;;;3.47;2.53;;;;;;;2.39;60.41;97675.34;5073182;28;20099;-61
2021/01/14 00:56:37;;;;;;;4.03;2.57;;;;;;;2.42;60.41;97674.50;5074573;28;20504;-61
2021/01/14 00:59:06;;;;;;;4.57;2.90;;;;;;;2.39;60.80;97670.28;5072996;28;20078;-62
2021/01/14 01:01:33;;;;;;;4.47;2.63;;;;;;;2.42;59.92;97671.97;5073746;28;20445;-62
2021/01/14 01:03:59;;;;;;;8.20;2.93;;;;;;;2.48;60.60;97669.41;5072853;28;20036;-62
2021/01/14 01:06:33;;;;;;;3.70;2.53;;;;;;;2.50;60.31;97662.69;5074962;28;20020;-62
2021/01/14 01:08:58;;;;;;;3.87;2.60;;;;;;;2.46;59.58;97656.75;5072526;28;20028;-62
2021/01/14 01:11:24;;;;;;;4.10;2.90;;;;;;;2.51;59.23;97644.09;5072826;28;20357;-61
2021/01/14 01:13:50;;;;;;;6.53;3.43;;;;;;;2.53;58.95;97640.75;5073155;28;20028;-61
2021/01/14 01:16:16;;;;;;;5.07;2.73;;;;;;;2.55;58.65;97635.66;5073592;28;20087;-62
2021/01/14 01:18:41;;;;;;;4.07;2.13;;;;;;;2.56;58.17;97628.06;5073407;28;20437;-61
2021/01/14 01:21:07;;;;;;;3.23;2.13;;;;;;;2.61;57.66;97639.03;5073491;28;20055;-62
2021/01/14 01:23:32;;;;;;;3.73;2.33;;;;;;;2.63;56.93;97641.56;5073079;28;20041;-62
2021/01/14 01:25:58;;;;;;;3.20;2.13;;;;;;;2.69;56.71;97633.91;5073521;28;20048;-62
2021/01/14 01:28:23;;;;;;;2.63;2.30;;;;;;;2.70;56.41;97628.88;5073540;28;20425;-62
2021/01/14 01:30:48;;;;;;;4.17;2.20;;;;;;;2.68;56.57;97630.56;5072965;28;20103;-62
2021/01/14 01:33:14;;;;;;;3.53;2.20;;;;;;;2.69;56.57;97623.81;5073522;28;20040;-62
2021/01/14 01:35:39;;;;;;;4.90;2.10;;;;;;;2.72;56.22;97619.56;5071820;28;20039;-62
2021/01/14 01:38:05;;;;;;;2.83;2.30;;;;;;;2.79;55.43;97625.47;5073480;28;20519;-62
2021/01/14 01:40:30;;;;;;;3.20;2.10;;;;;;;2.80;56.58;97619.53;5072708;28;20028;-62
2021/01/14 01:42:55;;;;;;;2.17;1.80;;;;;;;2.66;57.07;97617.06;5073502;28;20103;-62
2021/01/14 01:45:21;;;;;;;2.20;2.00;;;;;;;2.62;56.85;97607.81;5072742;28;20044;-62
2021/01/14 01:47:47;;;;;;;2.53;1.80;;;;;;;2.69;56.54;97606.09;5073456;28;20044;-62
2021/01/14 01:50:13;;;;;;;4.00;1.97;;;;;;;2.72;55.16;97603.53;5070277;28;20464;-62
2021/01/14 01:52:39;;;;;;;2.30;1.90;;;;;;;2.68;55.48;97612.84;5072510;28;20028;-61
2021/01/14 01:55:05;;;;;;;2.20;1.47;;;;;;;2.58;55.41;97601.09;5072991;28;20334;-61
2021/01/14 01:57:32;;;;;;;3.80;2.47;;;;;;;2.65;55.82;97607.78;5072289;28;20086;-61
2021/01/14 01:59:58;;;;;;;1.70;1.33;;;;;;;2.63;55.00;97596.81;5073314;28;20043;-61
2021/01/14 02:02:28;;;;;;;2.27;1.73;;;;;;;2.68;54.88;97590.06;5071789;28;20453;-62
2021/01/14 02:04:55;;;;;;;2.03;1.50;;;;;;;2.61;55.77;97585.88;5074168;28;20048;-62
2021/01/14 02:07:34;;;;;;;4.90;1.63;;;;;;;2.57;56.51;97576.63;5072343;28;20031;-62
2021/01/14 02:09:59;;;;;;;2.37;1.50;;;;;;;2.41;57.88;97582.63;5073585;28;20431;-62
2021/01/14 02:12:32;;;;;;;4.77;1.90;;;;;;;2.47;58.26;97582.56;5072241;28;20028;-62
2021/01/14 02:14:59;;;;;;;2.47;1.63;;;;;;;2.35;59.44;97585.16;5077606;28;20361;-62
2021/01/14 02:17:26;;;;;;;2.17;1.83;;;;;;;2.30;59.12;97589.38;5076288;28;20155;-61
2021/01/14 02:19:53;;;;;;;3.60;1.70;;;;;;;2.28;59.41;97584.34;5077253;28;20062;-62
2021/01/14 02:22:24;;;;;;;1.83;1.70;;;;;;;2.39;59.19;97583.44;5074647;28;20556;-61
2021/01/14 02:25:07;;;;;;;1.73;1.47;;;;;;;2.39;59.12;97584.28;5077434;28;20024;-62
2021/01/14 02:27:35;;;;;;;2.37;1.90;;;;;;;2.36;60.20;97578.41;5076003;28;20028;-61
2021/01/14 02:30:02;;;;;;;1.83;1.53;;;;;;;2.29;59.97;97583.47;5076531;28;20437;-61
2021/01/14 02:32:28;;;;;;;2.87;1.40;;;;;;;2.31;59.23;97583.47;5074566;28;20024;-61
2021/01/14 02:34:53;;;;;;;2.13;1.30;;;;;;;2.27;59.92;97579.28;5076863;28;20021;-61
2021/01/14 02:37:19;;;;;;;2.63;1.80;;;;;;;2.26;59.84;97578.44;5075807;28;20049;-61
2021/01/14 02:39:44;;;;;;;1.77;1.40;;;;;;;2.30;60.18;97564.94;5077293;28;20433;-61
2021/01/14 02:42:10;;;;;;;3.63;1.70;;;;;;;2.29;60.16;97557.38;5075631;28;20043;-61
2021/01/14 02:44:36;;;;;;;3.47;2.10;;;;;;;2.30;59.81;97561.56;5076941;28;20055;-61
2021/01/14 02:47:03;;;;;;;1.77;1.33;;;;;;;2.40;58.55;97554.78;5075364;28;20400;-61
2021/01/14 02:49:33;;;;;;;4.03;1.60;;;;;;;2.37;59.05;97565.78;5077103;28;20043;-61
2021/01/14 02:52:02;;;;;;;3.57;1.80;;;;;;;2.41;59.01;97571.66;5075048;28;20027;-61
2021/01/14 02:54:29;;;;;;;2.97;1.67;;;;;;;2.37;58.51;97570.81;5077062;28;20029;-61
2021/01/14 02:56:55;;;;;;;3.53;1.50;;;;;;;2.36;58.56;97568.28;5075545;28;20037;-61
2021/01/14 02:59:20;;;;;;;4.53;1.80;;;;;;;2.36;59.28;97568.28;5075488;28;20034;-61
2021/01/14 03:01:46;;;;;;;3.97;1.80;;;;;;;2.37;58.39;97575.03;5075192;28;20434;-61
2021/01/14 03:04:11;;;;;;;3.37;2.00;;;;;;;2.33;58.54;97551.47;5075281;28;20036;-61
2021/01/14 03:06:37;;;;;;;1.93;1.60;;;;;;;2.36;59.65;97570.81;5075989;28;20028;-62
2021/01/14 03:09:04;;;;;;;4.03;1.57;;;;;;;2.38;59.30;97561.56;5074385;28;20036;-63
2021/01/14 03:11:31;;;;;;;2.77;1.73;;;;;;;2.36;58.36;97569.13;5074364;28;20036;-64
2021/01/14 03:13:57;;;;;;;1.60;1.50;;;;;;;2.37;59.11;97573.34;5075573;28;20025;-63
2021/01/14 03:16:23;;;;;;;1.80;1.50;;;;;;;2.38;58.89;97559.03;5075061;28;20346;-63
2021/01/14 03:18:48;;;;;;;6.30;1.90;;;;;;;2.29;60.07;97564.97;5075598;28;20066;-62
2021/01/14 03:21:21;;;;;;;3.03;1.63;;;;;;;2.24;60.11;97564.13;5075450;28;20074;-63
2021/01/14 03:23:47;;;;;;;2.70;1.90;;;;;;;2.21;60.51;97559.06;5075271;28;20028;-63
2021/01/14 03:26:13;;;;;;;3.63;2.27;;;;;;;2.28;60.01;97574.22;5076301;28;20089;-63
2021/01/14 03:28:39;;;;;;;4.00;1.80;;;;;;;2.21;60.86;97564.97;5073898;28;20112;-63
2021/01/14 03:31:05;;;;;;;2.97;1.90;;;;;;;2.16;60.73;97556.56;5074390;28;20044;-63
2021/01/14 03:33:30;;;;;;;3.93;2.07;;;;;;;2.17;61.06;97570.88;5074829;28;20048;-63
2021/01/14 03:35:56;;;;;;;4.37;2.57;;;;;;;2.14;60.96;97560.78;5075569;28;20028;-63
2021/01/14 03:38:21;;;;;;;3.93;2.47;;;;;;;2.14;61.53;97563.31;5073970;28;20055;-63
2021/01/14 03:40:46;;;;;;;4.10;2.10;;;;;;;2.18;61.48;97551.50;5075262;28;20035;-63
2021/01/14 03:43:12;;;;;;;3.90;2.50;;;;;;;2.22;61.14;97560.75;5073823;28;20113;-63
2021/01/14 03:45:37;;;;;;;4.90;3.00;;;;;;;2.12;61.59;97551.53;5075564;28;20442;-64
2021/01/14 03:48:03;;;;;;;3.17;2.20;;;;;;;2.16;61.82;97571.75;5074034;28;20111;-63
2021/01/14 03:50:28;;;;;;;4.00;3.00;;;;;;;2.07;63.06;97550.69;5075894;28;20085;-62
2021/01/14 03:52:54;;;;;;;2.20;2.00;;;;;;;2.02;62.85;97560.81;5073442;28;20588;-63
2021/01/14 03:55:19;;;;;;;2.53;1.97;;;;;;;2.08;62.99;97565.03;5075094;28;20029;-64
2021/01/14 03:57:45;;;;;;;4.90;2.93;;;;;;;2.16;63.09;97560.78;5074330;28;20033;-63
2021/01/14 04:00:10;;;;;;;2.20;1.83;;;;;;;2.15;63.25;97554.88;5074826;28;20032;-63
2021/01/14 04:02:36;;;;;;;3.80;1.93;;;;;;;2.14;64.06;97587.75;5074291;28;20032;-64
2021/01/14 04:05:01;;;;;;;4.27;2.23;;;;;;;2.01;65.45;97568.41;5074656;28;20416;-64
2021/01/14 04:07:27;;;;;;;4.83;2.53;;;;;;;1.86;66.80;97578.56;5074608;28;20086;-64
2021/01/14 04:09:52;;;;;;;3.47;2.33;;;;;;;1.82;66.76;97598.75;5074272;28;20082;-63
2021/01/14 04:12:26;;;;;;;3.43;2.10;;;;;;;1.83;67.68;97618.13;5074777;28;20033;-63
2021/01/14 04:14:51;;;;;;;4.07;2.53;;;;;;;1.62;70.63;97624.88;5074597;28;20024;-63
2021/01/14 04:17:17;;;;;;;5.17;3.57;;;;;;;1.13;75.77;97634.94;5074621;28;20415;-63
2021/01/14 04:19:42;;;;;;;6.80;4.17;;;;;;;0.84;78.82;97637.41;5074033;28;20031;-63
2021/01/14 04:22:07;;;;;;;4.37;3.50;;;;;;;0.74;80.35;97648.28;5074981;28;20025;-64
2021/01/14 04:24:36;;;;;;;5.90;4.10;;;;;;;0.67;82.10;97651.63;5073887;28;20211;-62
2021/01/14 04:27:04;;;;;;;7.33;5.23;;;;;;;0.54;83.74;97639.81;5072791;28;20482;-62
2021/01/14 04:29:29;;;;;;;11.37;5.70;;;;;;;0.57;83.21;97654.94;5074273;28;20040;-62
2021/01/14 04:31:54;;;;;;;4.53;3.40;;;;;;;0.47;81.60;97658.25;5072837;28;20056;-62
2021/01/14 04:34:24;;;;;;;5.27;3.50;;;;;;;-142.25;0.00;110855.13;5073747;28;20028;-62
2021/01/14 04:37:54;;;;;;;2.73;1.57;;;;;;;-142.25;100.00;58004.16;5073152;28;20409;-62
2021/01/14 04:41:19;;;;;;;3.03;1.87;;;;;;;-142.25;100.00;58004.16;5072889;28;20445;-62
2021/01/14 04:44:43;;;;;;;0.90;0.90;;;;;;;-142.25;100.00;58004.16;5073997;28;20379;-62
2021/01/14 04:48:14;;;;;;;2.13;1.00;;;;;;;-142.25;100.00;58004.16;5073547;28;20368;-62
2021/01/14 04:51:38;;;;;;;2.97;0.90;;;;;;;-142.25;100.00;58004.16;5072872;28;20051;-62
2021/01/14 04:55:02;;;;;;;0.93;0.67;;;;;;;-142.25;100.00;58004.16;5073973;28;20461;-62
2021/01/14 04:57:29;;;;;;;1.53;0.60;;;;;;;0.72;68.07;97675.16;5073837;28;20032;-62
2021/01/14 05:00:58;;;;;;;0.70;0.60;;;;;;;-142.25;100.00;58004.16;5073613;28;20042;-62
2021/01/14 05:03:27;;;;;;;1.90;0.90;;;;;;;0.74;68.41;97678.56;5054429;28;20471;-62
2021/01/14 05:05:54;;;;;;;0.63;0.63;;;;;;;0.65;68.64;97672.63;5068469;28;20116;-62
2021/01/14 05:08:27;;;;;;;1.07;0.73;;;;;;;0.60;68.55;97690.25;5074741;28;20048;-62
2021/01/14 05:10:54;;;;;;;1.47;0.73;;;;;;;0.59;68.70;97680.16;5073573;28;20345;-62
2021/01/14 05:13:19;;;;;;;2.90;0.80;;;;;;;0.55;67.97;97674.28;5065915;28;20476;-63
2021/01/14 05:15:45;;;;;;;2.17;1.23;;;;;;;0.56;68.09;97680.13;5073697;28;20032;-63
2021/01/14 05:18:10;;;;;;;1.93;1.10;;;;;;;0.55;67.00;97691.06;5073159;28;20031;-63
2021/01/14 05:20:36;;;;;;;3.07;1.00;;;;;;;0.38;66.98;97698.56;5073802;28;20035;-63
2021/01/14 05:23:05;;;;;;;0.90;0.60;;;;;;;0.37;66.32;97690.13;5073321;28;20024;-63
2021/01/14 05:25:32;;;;;;;3.97;1.03;;;;;;;0.37;65.66;97695.19;5072459;28;20028;-63
2021/01/14 05:28:28;;;;;;;0.70;0.70;;;;;;;0.41;65.00;97703.59;5073370;28;20459;-61
2021/01/14 05:31:12;;;;;;;0.87;0.87;;;;;;;0.35;64.66;97703.56;5072753;28;20052;-62
2021/01/14 05:33:37;;;;;;;1.70;0.63;;;;;;;0.33;64.48;97707.75;5072314;28;20036;-62
2021/01/14 05:36:03;;;;;;;1.70;0.67;;;;;;;0.27;65.27;97705.19;5073982;28;20097;-62
2021/01/14 05:38:31;;;;;;;0.63;0.63;;;;;;;0.28;64.45;97716.97;5073144;28;20370;-62
2021/01/14 05:41:18;;;;;;;2.87;0.60;;;;;;;0.27;64.46;97721.16;5072500;28;20032;-62
2021/01/14 05:43:49;;;;;;;1.07;0.60;;;;;;;0.15;64.92;97730.31;5072108;28;20082;-62
2021/01/14 05:46:17;;;;;;;0.80;0.63;;;;;;;0.15;63.63;97726.13;5073103;28;20396;-62
2021/01/14 05:48:43;;;;;;;0.90;0.70;;;;;;;0.24;61.90;97731.22;5075166;28;20033;-61
2021/01/14 05:51:38;;;;;;;0.70;0.60;;;;;;;0.29;61.60;97729.59;5076899;28;20028;-61
2021/01/14 05:54:12;;;;;;;0.73;0.60;;;;;;;0.23;61.59;97734.56;5064120;28;20082;-62
2021/01/14 05:56:47;;;;;;;0.80;0.60;;;;;;;0.25;60.61;97739.63;5077510;28;20494;-62
2021/01/14 05:59:14;;;;;;;1.80;0.40;;;;;;;0.27;60.67;97748.88;5077840;28;20119;-62
2021/01/14 06:01:52;;;;;;;0.93;0.80;;;;;;;0.31;60.67;97753.09;5077041;28;20044;-62
2021/01/14 06:04:20;;;;;;;1.33;0.70;;;;;;;0.22;60.59;97759.75;5078054;28;20344;-62
2021/01/14 06:06:47;;;;;;;0.40;0.40;;;;;;;0.27;59.40;97761.47;5077358;28;20031;-61
2021/01/14 06:09:14;;;;;;;0.67;0.63;;;;;;;0.31;59.12;97754.78;5077063;28;20020;-61
2021/01/14 06:11:40;;;;;;;0.50;0.40;;;;;;;0.28;59.24;97744.69;5076713;28;20035;-61
2021/01/14 06:14:06;;;;;;;0.57;0.53;;;;;;;0.23;58.92;97762.28;5077024;28;20020;-61
2021/01/14 06:16:48;;;;;;;1.40;0.50;;;;;;;0.21;58.97;97774.03;5076858;28;20451;-61
2021/01/14 06:19:14;;;;;;;0.93;0.50;;;;;;;0.28;57.76;97767.38;5076736;28;20365;-61
2021/01/14 06:21:46;;;;;;;0.60;0.60;;;;;;;0.24;58.61;97773.22;5076367;28;20024;-61
2021/01/14 06:24:25;;;;;;;0.73;0.50;;;;;;;0.25;57.38;97767.34;5076643;28;20070;-61
2021/01/14 06:26:58;;;;;;;1.30;0.80;;;;;;;0.17;58.43;97767.28;5076321;28;20020;-61
2021/01/14 06:29:26;;;;;;;1.03;0.60;;;;;;;0.19;58.36;97772.34;5074648;28;20442;-61
2021/01/14 06:32:05;;;;;;;1.83;0.40;;;;;;;0.32;57.53;97774.97;5076554;28;20472;-61
2021/01/14 06:34:32;;;;;;;0.93;0.40;;;;;;;0.27;57.72;97770.72;5074612;28;20024;-61
2021/01/14 06:37:05;;;;;;;0.93;0.40;;;;;;;0.35;57.49;97784.22;5076323;28;20468;-61
2021/01/14 06:39:37;;;;;;;0.30;0.30;;;;;;;0.29;58.15;97785.03;5075652;28;20031;-61
2021/01/14 06:42:20;;;;;;;0.90;0.50;;;;;;;0.37;57.28;97796.00;5076968;28;20364;-61
2021/01/14 06:44:52;;;;;;;1.00;0.83;;;;;;;0.34;58.18;97797.69;5075712;28;20028;-60
2021/01/14 06:47:41;;;;;;;0.73;0.60;;;;;;;0.33;58.52;97795.97;5076770;28;20028;-61
2021/01/14 06:50:15;;;;;;;0.83;0.47;;;;;;;0.37;57.61;97802.72;5069864;28;20036;-65
2021/01/14 06:52:59;;;;;;;2.42;1.15;;;;;;;0.45;57.07;97804.47;5075875;28;20024;-65
2021/01/14 06:55:28;;;;;;;0.43;0.40;;;;;;;0.51;56.68;97813.75;5075815;28;20099;-65
2021/01/14 06:58:13;;;;;;;1.67;0.37;;;;;;;0.54;56.47;97830.59;5076727;28;20028;-65
2021/01/14 07:00:40;;;;;;;0.80;0.50;;;;;;;0.62;57.40;97802.06;5074591;28;20345;-64
2021/01/14 07:03:20;;;;;;;0.43;0.33;;;;;;;0.61;56.91;97809.63;5076209;28;20445;-65
2021/01/14 07:05:51;;;;;;;0.73;0.43;;;;;;;0.62;57.45;97804.59;5075187;28;20089;-64
2021/01/14 07:08:37;;;;;;;0.73;0.70;;;;;;;0.61;58.74;97810.47;5076354;28;20036;-64
2021/01/14 07:11:17;;;;;;;0.40;0.40;;;;;;;0.64;58.86;97814.66;5068026;28;20037;-64
2021/01/14 07:13:46;;;;;;;0.60;0.60;;;;;;;0.66;59.50;97828.16;5070070;28;20028;-64
2021/01/14 07:16:16;;;;;;;1.27;0.47;;;;;;;0.63;60.00;97823.94;5075031;28;20029;-64
2021/01/14 07:18:44;;;;;;;0.30;0.30;;;;;;;0.64;59.45;97823.09;5075821;28;20020;-64
2021/01/14 07:21:25;;;;;;;0.83;0.50;;;;;;;0.69;60.21;97831.53;5060884;28;20171;-64
2021/01/14 07:24:05;;;;;;;1.70;0.93;;;;;;;0.69;60.32;97834.06;5070250;28;20228;-63
2021/01/14 07:26:32;;;;;;;1.27;0.50;;;;;;;0.66;61.78;97835.72;5074105;28;20112;-64
2021/01/14 07:29:02;;;;;;;0.93;0.63;;;;;;;0.62;61.76;97834.84;5075874;28;20024;-65
2021/01/14 07:31:28;;;;;;;1.60;0.77;;;;;;;0.77;61.61;97834.09;5061112;28;20028;-65
2021/01/14 07:33:54;;;;;;;1.00;0.70;;;;;;;0.76;61.79;97850.09;5075475;28;20020;-65
2021/01/14 07:36:25;;;;;;;1.00;0.80;;;;;;;0.69;62.36;97849.19;5067006;28;20035;-63
2021/01/14 07:38:55;;;;;;;1.40;1.23;;;;;;;0.69;61.86;97861.78;5075209;28;20097;-64
2021/01/14 07:41:21;;;;;;;1.10;1.00;;;;;;;0.73;62.68;97852.56;5074598;28;20104;-64
2021/01/14 07:43:47;;;;;;;0.93;0.73;;;;;;;0.74;61.67;97860.16;5075874;28;20120;-65
2021/01/14 07:46:14;;;;;;;3.37;1.20;;;;;;;0.76;62.17;97857.66;5073119;28;20028;-66
2021/01/14 07:48:40;;;;;;;3.57;1.03;;;;;;;0.80;61.59;97879.53;5075276;28;20123;-66
2021/01/14 07:51:05;;;;;;;2.23;1.03;;;;;;;0.81;60.96;97864.41;5073385;28;20115;-66
2021/01/14 07:53:31;;;;;;;3.37;1.50;;;;;;;0.79;61.33;97871.13;5074756;28;20021;-66
2021/01/14 07:56:23;;;;;;;1.53;1.00;;;;;;;0.81;61.14;97868.59;5074284;28;20035;-66
2021/01/14 07:58:52;;;;;;;7.80;1.33;;;;;;;0.85;61.22;97863.59;5054918;28;20029;-66
2021/01/14 08:01:18;;;;;;;12.63;1.30;;;;;;;0.90;60.83;97856.91;5054478;28;20032;-67
2021/01/14 08:03:44;;;;;;;1.40;0.80;;;;;;;0.94;60.38;97857.75;5072844;28;20024;-66
2021/01/14 08:06:42;;;;;;;3.63;1.17;;;;;;;0.99;60.79;97845.16;5073113;28;20043;-66
2021/01/14 08:09:10;;;;;;;1.70;1.50;;;;;;;0.92;61.29;97859.44;5074048;28;20043;-66
2021/01/14 08:11:45;;;;;;;2.13;1.20;;;;;;;1.06;60.74;97851.97;5072111;28;20354;-66
2021/01/14 08:14:18;;;;;;;3.53;1.23;;;;;;;0.95;61.69;97861.97;5071917;28;20449;-66
2021/01/14 08:16:47;;;;;;;1.80;1.30;;;;;;;0.89;64.02;97893.03;5070105;28;20029;-66
2021/01/14 08:19:19;;;;;;;2.60;1.20;;;;;;;0.76;66.93;97888.78;5070709;28;20288;-66
2021/01/14 08:21:57;;;;;;;2.23;1.20;;;;;;;0.55;69.06;97910.44;5068876;28;20060;-67
2021/01/14 08:24:32;;;;;;;2.00;1.57;;;;;;;0.31;72.11;97918.63;5067921;28;20027;-66
2021/01/14 08:27:03;;;;;;;6.22;2.55;;;;;;;-0.13;76.22;97923.19;5067796;28;20032;-66
2021/01/14 08:29:32;;;;;;;2.27;1.83;;;;;;;-0.30;79.27;97923.00;5072167;28;20033;-66
2021/01/14 08:31:58;;;;;;;2.03;1.60;;;;;;;-0.48;80.40;97930.31;5071796;28;20020;-67
2021/01/14 08:34:25;;;;;;;5.17;1.70;;;;;;;-0.54;81.50;97943.66;5074222;28;20047;-66
2021/01/14 08:36:55;;;;;;;2.30;1.70;;;;;;;-0.57;82.41;97938.59;5071988;28;20060;-66
2021/01/14 08:39:22;;;;;;;3.43;1.90;;;;;;;-0.69;81.93;97940.94;5025764;28;20738;-66
2021/01/14 08:41:49;;;;;;;3.60;1.93;;;;;;;-0.66;82.74;97937.63;5030743;28;20076;-66
2021/01/14 08:44:17;;;;;;;2.60;1.57;;;;;;;-0.51;82.41;97928.59;5031263;28;20111;-66
2021/01/14 08:46:48;;;;;;;12.43;1.93;;;;;;;-0.49;81.81;97931.13;5028724;28;20488;-65
2021/01/14 08:49:18;;;;;;;1.77;1.67;;;;;;;-0.51;81.62;97940.38;5034269;28;20086;-64
2021/01/14 08:51:43;;;;;;;6.70;1.63;;;;;;;-0.49;80.68;97926.97;5033048;28;20148;-65
2021/01/14 08:54:10;;;;;;;5.73;1.67;;;;;;;-0.34;80.25;97935.53;5033147;28;20060;-65
2021/01/14 08:56:37;;;;;;;2.57;1.30;;;;;;;-0.30;79.08;97930.56;5030633;28;20410;-65
2021/01/14 08:59:18;;;;;;;5.73;1.47;;;;;;;-0.26;78.38;97924.75;5027217;28;20033;-65
2021/01/14 09:01:43;;;;;;;1.90;1.30;;;;;;;-0.24;77.90;97938.19;5030745;28;20032;-64
2021/01/14 09:04:10;;;;;;;1.93;1.40;;;;;;;-0.13;77.46;97938.31;5031068;28;20029;-64
2021/01/14 09:06:40;;;;;;;2.30;1.37;;;;;;;-0.04;77.10;97934.22;5033273;28;20370;-65
2021/01/14 09:09:07;;;;;;;3.80;1.33;;;;;;;-0.04;76.92;97949.31;5033039;28;20029;-65
2021/01/14 09:11:34;;;;;;;2.00;1.17;;;;;;;-0.15;77.73;97947.50;5032281;28;20438;-65
2021/01/14 09:14:04;;;;;;;2.37;1.57;;;;;;;-0.01;76.60;97943.50;5032557;28;20037;-65
2021/01/14 09:16:30;;;;;;;2.90;1.50;;;;;;;-0.18;76.91;97947.50;5031089;28;20025;-65
2021/01/14 09:18:55;;;;;;;3.47;1.40;;;;;;;-0.25;78.77;97960.81;5025439;28;20355;-65
2021/01/14 09:21:21;;;;;;;1.77;1.57;;;;;;;-0.12;77.10;97940.84;5025994;28;20029;-66
2021/01/14 09:23:47;;;;;;;2.80;1.77;;;;;;;-0.14;77.69;97947.53;5028818;28;20041;-66
2021/01/14 09:26:20;;;;;;;2.70;1.70;;;;;;;-0.05;78.17;97945.13;5026939;28;20044;-67
2021/01/14 09:28:53;;;;;;;4.60;2.47;;;;;;;-0.04;77.69;97948.47;5030854;28;20026;-66
2021/01/14 09:31:20;;;;;;;6.60;2.37;;;;;;;0.07;77.20;97954.50;5026594;28;20033;-66
2021/01/14 09:33:47;;;;;;;4.70;2.80;;;;;;;0.02;76.98;97952.75;5030860;28;20418;-66
2021/01/14 09:36:17;;;;;;;2.67;1.93;;;;;;;0.00;78.14;97958.59;5035061;28;20430;-66
2021/01/14 09:38:52;;;;;;;3.43;2.43;;;;;;;0.03;78.97;97962.84;5065369;28;20048;-67
2021/01/14 09:41:28;;;;;;;2.07;1.80;;;;;;;-0.02;79.78;97982.94;5072592;28;20043;-67
2021/01/14 09:43:58;;;;;;;4.67;2.17;;;;;;;-0.14;80.74;97977.78;5070684;28;20024;-65
2021/01/14 09:46:26;;;;;;;3.80;2.10;;;;;;;-0.16;81.93;97983.59;5072397;28;20114;-66
2021/01/14 09:48:59;;;;;;;4.27;2.30;;;;;;;-0.21;82.67;97987.75;5071878;28;20025;-66
2021/01/14 09:51:25;;;;;;;7.10;3.00;;;;;;;-0.26;83.04;97982.66;5069669;28;20445;-66
2021/01/14 09:53:50;;;;;;;3.63;2.43;;;;;;;-0.15;83.29;97985.28;5072512;28;20042;-66
2021/01/14 09:56:41;;;;;;;6.93;2.30;;;;;;;-0.11;83.39;97992.91;5072824;28;20158;-66
2021/01/14 09:59:20;;;;;;;3.87;2.30;;;;;;;-0.11;83.34;97975.28;5068135;28;20075;-66
2021/01/14 10:01:52;;;;;;;6.43;3.00;;;;;;;-0.37;83.81;97986.69;5063346;28;20357;-65
2021/01/14 10:04:21;;;;;;;9.47;2.40;;;;;;;-0.19;83.34;97979.38;5068176;28;20027;-66
2021/01/14 10:06:54;;;;;;;7.80;3.00;;;;;;;-0.03;82.41;97993.00;5065715;28;20389;-65
2021/01/14 10:09:20;;;;;;;3.57;1.87;;;;;;;-0.02;81.21;97985.47;5066762;28;20032;-66
2021/01/14 10:11:45;;;;;;;3.80;1.40;;;;;;;0.21;80.96;97978.16;5066580;28;20042;-66
2021/01/14 10:14:21;;;;;;;5.23;2.10;;;;;;;-0.11;80.76;98010.53;5071488;28;20032;-65
2021/01/14 10:16:50;;;;;;;2.90;1.57;;;;;;;-0.14;81.14;98013.03;5070699;28;20025;-66
2021/01/14 10:19:19;;;;;;;1.80;1.37;;;;;;;-0.30;82.29;98008.63;5073186;28;20048;-67
2021/01/14 10:21:45;;;;;;;1.57;1.33;;;;;;;-0.18;81.20;98013.81;5073359;28;20028;-67
2021/01/14 10:24:18;;;;;;;3.10;1.20;;;;;;;-0.09;80.72;98008.06;5067298;28;20119;-65
2021/01/14 10:26:43;;;;;;;3.90;1.43;;;;;;;-0.27;81.18;98038.03;5068376;28;20043;-66
2021/01/14 10:29:09;;;;;;;2.67;1.67;;;;;;;-0.35;82.14;98000.16;5064669;28;20033;-65
2021/01/14 10:31:39;;;;;;;2.47;1.17;;;;;;;-0.28;80.74;98013.66;5069426;28;20052;-65
2021/01/14 10:34:07;;;;;;;7.20;1.67;;;;;;;-0.29;80.90;98025.41;5068756;28;20024;-65
2021/01/14 10:36:50;;;;;;;2.10;0.93;;;;;;;-0.18;80.05;98021.38;5076195;28;20025;-65
2021/01/14 10:39:18;;;;;;;2.53;1.37;;;;;;;-0.23;79.84;98034.72;5073530;28;20051;-65
2021/01/14 10:41:47;;;;;;;1.63;1.10;;;;;;;-0.14;81.02;98047.44;5072402;28;20024;-65
2021/01/14 10:44:12;;;;;;;3.33;1.53;;;;;;;-0.31;82.28;98038.81;5071169;28;20036;-65
2021/01/14 10:46:40;;;;;;;0.83;0.80;;;;;;;-0.47;83.16;98045.31;5070914;28;20020;-65
2021/01/14 10:49:11;;;;;;;6.00;1.53;;;;;;;-0.42;83.73;98053.75;5075281;28;20342;-65
2021/01/14 10:51:37;;;;;;;1.87;1.20;;;;;;;-0.34;83.51;98056.41;5074253;28;20020;-64
2021/01/14 10:54:03;;;;;;;5.07;3.17;;;;;;;-0.35;83.25;98048.00;5076350;28;20036;-65
2021/01/14 10:56:28;;;;;;;1.70;1.43;;;;;;;-0.41;82.46;98052.94;5068079;28;20472;-66
2021/01/14 10:58:56;;;;;;;2.00;1.30;;;;;;;-0.25;81.31;98051.47;5074238;28;20070;-62
2021/01/14 11:01:22;;;;;;;1.80;1.17;;;;;;;-0.09;80.74;98048.38;5069980;28;20457;-65
2021/01/14 11:03:49;;;;;;;2.83;1.20;;;;;;;-0.11;80.08;98043.28;5070386;28;20119;-65
2021/01/14 11:06:30;;;;;;;2.60;1.03;;;;;;;-0.07;78.52;98034.94;5070923;28;20062;-64
2021/01/14 11:09:01;;;;;;;7.17;2.23;;;;;;;0.09;78.28;98043.53;5072943;28;20423;-65
2021/01/14 11:11:27;;;;;;;2.83;1.60;;;;;;;0.11;77.74;98041.91;5072408;28;20051;-65
2021/01/14 11:13:52;;;;;;;1.20;1.10;;;;;;;0.22;75.96;98036.97;5071969;28;20434;-65
2021/01/14 11:16:20;;;;;;;3.93;1.10;;;;;;;0.44;75.32;98046.50;5074236;28;20024;-65
2021/01/14 11:18:47;;;;;;;3.23;0.77;;;;;;;0.36;76.53;98041.38;5071065;28;20457;-65
2021/01/14 11:21:14;;;;;;;1.83;1.00;;;;;;;0.31;76.98;98042.13;5074278;28;20107;-65
2021/01/14 11:23:40;;;;;;;2.73;0.90;;;;;;;0.24;76.93;98058.03;5073341;28;20040;-65
2021/01/14 11:26:07;;;;;;;3.67;1.20;;;;;;;0.17;76.74;98056.25;5074848;28;20067;-65
2021/01/14 11:28:38;;;;;;;2.87;1.27;;;;;;;0.25;77.65;98070.66;5071780;28;20028;-65
2021/01/14 11:31:05;;;;;;;4.97;1.97;;;;;;;0.02;78.19;98077.06;5071456;28;20028;-65
2021/01/14 11:33:31;;;;;;;1.07;0.97;;;;;;;-0.07;79.28;98077.78;5072591;28;20486;-64
2021/01/14 11:35:57;;;;;;;3.47;1.67;;;;;;;-0.24;81.60;98083.41;5071227;28;20457;-65
2021/01/14 11:38:22;;;;;;;6.97;1.70;;;;;;;-0.19;81.15;98090.19;5073977;28;20037;-65
2021/01/14 11:40:48;;;;;;;3.87;1.00;;;;;;;-0.24;80.88;98089.28;5073882;28;20024;-65
2021/01/14 11:43:14;;;;;;;1.60;0.97;;;;;;;-0.32;81.31;98105.94;5073316;28;20338;-64
2021/01/14 11:45:40;;;;;;;2.13;1.67;;;;;;;-0.38;83.26;98105.03;5073120;28;20077;-64
2021/01/14 11:48:07;;;;;;;2.93;1.37;;;;;;;-0.24;81.91;98106.06;5072671;28;20036;-64
2021/01/14 11:50:32;;;;;;;4.43;1.53;;;;;;;-0.16;80.97;98114.56;5074155;28;20028;-64
2021/01/14 11:52:57;;;;;;;1.67;1.10;;;;;;;-0.18;82.26;98098.59;5070371;28;20047;-64
2021/01/14 11:55:23;;;;;;;4.03;1.80;;;;;;;-0.08;80.32;98113.00;5070693;28;20090;-63